This is the latest recevied weather packets stored in our database for station/object Dunnningn. If no packets are shown the sender has not sent any weather packets the latest 10 day(s).
| Time | Temp. | Humidity | Pressure | Rain* | Wind** | Luminosity | Snow |
|---|---|---|---|---|---|---|---|
| 1788420735 | 16.11° C | 74% | 1023 hPa | 0 mm | - | - | - |
| 1788418930 | 13.33° C | 84% | 1023 hPa | 0 mm | - | - | - |
| 1788417130 | 12.22° C | 86% | 1023.1 hPa | 0 mm | - | - | - |
| 1788415329 | 11.11° C | 90% | 1023.4 hPa | 0 mm | - | - | - |
| 1788413529 | 10.56° C | 90% | 1023.3 hPa | 0 mm | - | - | - |
| 1788411729 | 10° C | 89% | 1022.9 hPa | 0 mm | - | - | - |
| 1788409929 | 10.56° C | 87% | 1022.8 hPa | 0 mm | - | - | - |
| 1788408130 | 11.11° C | 87% | 1022.8 hPa | 0 mm | - | - | - |
| 1788406331 | 11.11° C | 88% | 1022.8 hPa | 0 mm | - | - | - |
| 1788404529 | 11.11° C | 88% | 1022.8 hPa | 0 mm | - | - | - |
| 1788402730 | 11.11° C | 88% | 1022.8 hPa | 0 mm | - | - | - |
| 1788400929 | 11.67° C | 86% | 1022.7 hPa | 0 mm | - | - | - |
| 1788399129 | 11.67° C | 85% | 1022.9 hPa | 0 mm | - | - | - |
| 1788397329 | 12.22° C | 84% | 1023 hPa | 0 mm | - | - | - |
| 1788395531 | 12.78° C | 83% | 1022.6 hPa | 0 mm | - | - | - |
| 1788393731 | 12.78° C | 84% | 1022.5 hPa | 0 mm | - | - | - |
| 1788391932 | 13.33° C | 83% | 1022.7 hPa | 0 mm | - | - | - |
| 1788390131 | 13.89° C | 81% | 1022.6 hPa | 0 mm | - | - | - |
| 1788388331 | 14.44° C | 79% | 1022.6 hPa | 0 mm | - | - | - |
| 1788384731 | 15.56° C | 76% | 1022.5 hPa | 0 mm | - | - | - |
| 1788382931 | 16.11° C | 74% | 1022.5 hPa | 0 mm | - | - | - |
| 1788381131 | 16.67° C | 71% | 1022.3 hPa | 0 mm | - | - | - |
| 1788379330 | 17.78° C | 69% | 1022.1 hPa | 0 mm | - | - | - |
| 1788377531 | 18.33° C | 66% | 1022 hPa | 0 mm | - | - | - |
| 1788375756 | 19.44° C | 63% | 1021.8 hPa | 0 mm | - | - | - |
* Rain since midnight (hover to see other rain measurements)
** Current wind speed in m/s (hover to see current wind gust speed)